Terminal Aerodrome Forecast
Issued by NWS

Home | Current Version | Previous Version | Text Only | Print | Product List | Glossary On
Versions: 1 2 3 4 5 6 7 8 9 10 11 12 13 14 15 16 17 18 19 20 21 22 23 24 25 26 27 28 29 30 31 32 33 34 35 36
000
FTAK31 PAFA 302330
TAFATA
TAF
PATA 302330Z 0100/0124 26007KT P6SM BKN030 OVC045
     FM010300 25006KT P6SM SCT040 BKN100
     FM011300 VRB03KT 5SM BR FEW004 SCT050 OVC100
     FM011700 VRB03KT P6SM FEW050 OVC100=

USA.gov is the U.S. government's official web portal to all federal, state and local government web resources and services.